sensor_id;sensor_type;location;lat;lon;timestamp;temperature;humidity
17170;DHT22;8700;48.222;16.342;2023-06-10T00:00:05;19.30;99.90
17170;DHT22;8700;48.222;16.342;2023-06-10T00:03:27;19.30;99.90
17170;DHT22;8700;48.222;16.342;2023-06-10T00:06:51;19.30;99.90
17170;DHT22;8700;48.222;16.342;2023-06-10T00:10:16;19.20;99.90
17170;DHT22;8700;48.222;16.342;2023-06-10T00:13:38;19.10;99.90
17170;DHT22;8700;48.222;16.342;2023-06-10T00:17:02;19.10;99.90
17170;DHT22;8700;48.222;16.342;2023-06-10T00:20:23;19.00;99.90
17170;DHT22;8700;48.222;16.342;2023-06-10T00:23:48;18.90;99.90
17170;DHT22;8700;48.222;16.342;2023-06-10T00:27:10;18.90;99.90
17170;DHT22;8700;48.222;16.342;2023-06-10T00:30:32;18.80;99.90
17170;DHT22;8700;48.222;16.342;2023-06-10T00:33:57;18.90;99.90
17170;DHT22;8700;48.222;16.342;2023-06-10T00:37:19;18.90;99.90
17170;DHT22;8700;48.222;16.342;2023-06-10T00:40:46;19.10;99.90
17170;DHT22;8700;48.222;16.342;2023-06-10T00:44:09;19.10;99.90
17170;DHT22;8700;48.222;16.342;2023-06-10T00:47:31;19.00;99.90
17170;DHT22;8700;48.222;16.342;2023-06-10T00:50:58;19.00;99.90
17170;DHT22;8700;48.222;16.342;2023-06-10T00:54:21;19.00;99.90
17170;DHT22;8700;48.222;16.342;2023-06-10T01:01:33;18.90;99.90
17170;DHT22;8700;48.222;16.342;2023-06-10T01:05:04;18.90;99.90
17170;DHT22;8700;48.222;16.342;2023-06-10T01:08:32;18.90;99.90
17170;DHT22;8700;48.222;16.342;2023-06-10T01:12:02;18.90;99.90
17170;DHT22;8700;48.222;16.342;2023-06-10T01:15:31;19.00;99.90
17170;DHT22;8700;48.222;16.342;2023-06-10T01:18:53;19.00;99.90
17170;DHT22;8700;48.222;16.342;2023-06-10T01:22:16;19.00;99.90
17170;DHT22;8700;48.222;16.342;2023-06-10T01:25:39;19.00;99.90
17170;DHT22;8700;48.222;16.342;2023-06-10T01:29:07;19.00;99.90
17170;DHT22;8700;48.222;16.342;2023-06-10T01:32:34;19.00;99.90
17170;DHT22;8700;48.222;16.342;2023-06-10T01:36:02;19.00;99.90
17170;DHT22;8700;48.222;16.342;2023-06-10T01:39:26;18.90;99.90
17170;DHT22;8700;48.222;16.342;2023-06-10T01:42:51;19.00;99.90
17170;DHT22;8700;48.222;16.342;2023-06-10T01:46:14;18.90;99.90
17170;DHT22;8700;48.222;16.342;2023-06-10T01:49:42;18.80;99.90
17170;DHT22;8700;48.222;16.342;2023-06-10T01:53:05;19.00;99.90
17170;DHT22;8700;48.222;16.342;2023-06-10T01:56:27;19.00;99.90
17170;DHT22;8700;48.222;16.342;2023-06-10T01:59:49;19.00;99.90
17170;DHT22;8700;48.222;16.342;2023-06-10T02:03:11;19.00;99.90
17170;DHT22;8700;48.222;16.342;2023-06-10T02:06:33;19.20;99.90
17170;DHT22;8700;48.222;16.342;2023-06-10T02:09:56;19.30;99.90
17170;DHT22;8700;48.222;16.342;2023-06-10T02:13:19;19.30;99.90
17170;DHT22;8700;48.222;16.342;2023-06-10T02:16:40;19.30;99.90
17170;DHT22;8700;48.222;16.342;2023-06-10T02:20:10;19.30;99.90
17170;DHT22;8700;48.222;16.342;2023-06-10T02:23:33;19.20;99.90
17170;DHT22;8700;48.222;16.342;2023-06-10T02:26:55;19.20;99.90
17170;DHT22;8700;48.222;16.342;2023-06-10T02:30:18;19.30;99.90
17170;DHT22;8700;48.222;16.342;2023-06-10T02:33:40;19.30;99.90
17170;DHT22;8700;48.222;16.342;2023-06-10T02:37:02;19.30;99.90
17170;DHT22;8700;48.222;16.342;2023-06-10T02:40:24;19.30;99.90
17170;DHT22;8700;48.222;16.342;2023-06-10T02:43:45;19.40;99.90
17170;DHT22;8700;48.222;16.342;2023-06-10T02:47:08;19.40;99.90
17170;DHT22;8700;48.222;16.342;2023-06-10T02:50:32;19.20;99.90
17170;DHT22;8700;48.222;16.342;2023-06-10T02:53:54;19.20;99.90
17170;DHT22;8700;48.222;16.342;2023-06-10T02:57:16;19.20;99.90
17170;DHT22;8700;48.222;16.342;2023-06-10T03:00:37;19.20;99.90
17170;DHT22;8700;48.222;16.342;2023-06-10T03:04:02;19.30;99.90
17170;DHT22;8700;48.222;16.342;2023-06-10T03:07:24;19.30;99.90
17170;DHT22;8700;48.222;16.342;2023-06-10T03:10:49;19.40;99.90
17170;DHT22;8700;48.222;16.342;2023-06-10T03:14:11;19.30;99.90
17170;DHT22;8700;48.222;16.342;2023-06-10T03:17:33;19.30;99.90
17170;DHT22;8700;48.222;16.342;2023-06-10T03:20:56;19.30;99.90
17170;DHT22;8700;48.222;16.342;2023-06-10T03:24:18;19.30;99.90
17170;DHT22;8700;48.222;16.342;2023-06-10T03:27:41;19.30;99.90
17170;DHT22;8700;48.222;16.342;2023-06-10T03:31:09;19.30;99.90
17170;DHT22;8700;48.222;16.342;2023-06-10T03:34:36;19.40;99.90
17170;DHT22;8700;48.222;16.342;2023-06-10T03:38:00;19.40;99.90
17170;DHT22;8700;48.222;16.342;2023-06-10T03:41:21;19.40;99.90
17170;DHT22;8700;48.222;16.342;2023-06-10T03:44:43;19.50;99.90
17170;DHT22;8700;48.222;16.342;2023-06-10T03:48:05;19.50;99.90
17170;DHT22;8700;48.222;16.342;2023-06-10T03:51:28;19.60;99.90
17170;DHT22;8700;48.222;16.342;2023-06-10T03:54:51;19.60;99.90
17170;DHT22;8700;48.222;16.342;2023-06-10T03:58:12;19.60;99.90
17170;DHT22;8700;48.222;16.342;2023-06-10T04:01:36;19.60;99.90
17170;DHT22;8700;48.222;16.342;2023-06-10T04:05:01;19.70;99.90
17170;DHT22;8700;48.222;16.342;2023-06-10T04:08:22;19.60;99.90
17170;DHT22;8700;48.222;16.342;2023-06-10T04:11:48;19.80;99.90
17170;DHT22;8700;48.222;16.342;2023-06-10T04:15:11;19.90;99.90
17170;DHT22;8700;48.222;16.342;2023-06-10T04:18:34;19.90;99.90
17170;DHT22;8700;48.222;16.342;2023-06-10T04:21:57;19.90;99.90
17170;DHT22;8700;48.222;16.342;2023-06-10T04:25:20;20.10;99.90
17170;DHT22;8700;48.222;16.342;2023-06-10T04:28:47;20.20;99.90
17170;DHT22;8700;48.222;16.342;2023-06-10T04:32:08;20.20;99.90
17170;DHT22;8700;48.222;16.342;2023-06-10T04:35:31;20.30;99.90
17170;DHT22;8700;48.222;16.342;2023-06-10T04:38:53;20.50;99.90
17170;DHT22;8700;48.222;16.342;2023-06-10T04:42:18;20.50;99.90
17170;DHT22;8700;48.222;16.342;2023-06-10T04:45:45;20.60;99.90
17170;DHT22;8700;48.222;16.342;2023-06-10T04:49:15;20.70;99.90
17170;DHT22;8700;48.222;16.342;2023-06-10T04:52:37;20.70;99.90
17170;DHT22;8700;48.222;16.342;2023-06-10T04:56:05;20.70;99.90
17170;DHT22;8700;48.222;16.342;2023-06-10T04:59:32;20.80;99.90
17170;DHT22;8700;48.222;16.342;2023-06-10T05:02:58;20.80;99.90
17170;DHT22;8700;48.222;16.342;2023-06-10T05:06:24;20.70;99.90
17170;DHT22;8700;48.222;16.342;2023-06-10T05:09:45;20.60;99.90
17170;DHT22;8700;48.222;16.342;2023-06-10T05:13:09;20.90;99.90
17170;DHT22;8700;48.222;16.342;2023-06-10T05:16:34;21.10;99.90
17170;DHT22;8700;48.222;16.342;2023-06-10T05:19:57;21.00;99.90
17170;DHT22;8700;48.222;16.342;2023-06-10T05:23:19;20.90;99.90
17170;DHT22;8700;48.222;16.342;2023-06-10T05:26:40;21.10;99.90
17170;DHT22;8700;48.222;16.342;2023-06-10T05:30:06;21.00;99.90
17170;DHT22;8700;48.222;16.342;2023-06-10T05:33:28;21.10;99.90
17170;DHT22;8700;48.222;16.342;2023-06-10T05:36:57;21.20;99.90
17170;DHT22;8700;48.222;16.342;2023-06-10T05:40:19;21.10;99.90
17170;DHT22;8700;48.222;16.342;2023-06-10T05:43:47;20.90;99.90
17170;DHT22;8700;48.222;16.342;2023-06-10T05:47:09;21.00;99.90
17170;DHT22;8700;48.222;16.342;2023-06-10T05:50:34;21.10;99.90
17170;DHT22;8700;48.222;16.342;2023-06-10T05:54:02;21.10;99.90
17170;DHT22;8700;48.222;16.342;2023-06-10T05:57:24;21.10;99.90
17170;DHT22;8700;48.222;16.342;2023-06-10T06:00:50;20.90;99.90
17170;DHT22;8700;48.222;16.342;2023-06-10T06:04:14;20.70;99.90
17170;DHT22;8700;48.222;16.342;2023-06-10T06:07:36;20.60;99.90
17170;DHT22;8700;48.222;16.342;2023-06-10T06:11:02;20.50;99.90
17170;DHT22;8700;48.222;16.342;2023-06-10T06:14:30;20.30;99.90
17170;DHT22;8700;48.222;16.342;2023-06-10T06:17:53;20.50;99.90
17170;DHT22;8700;48.222;16.342;2023-06-10T06:21:16;20.40;99.90
17170;DHT22;8700;48.222;16.342;2023-06-10T06:24:42;20.20;99.90
17170;DHT22;8700;48.222;16.342;2023-06-10T06:28:05;20.10;99.90
17170;DHT22;8700;48.222;16.342;2023-06-10T06:31:27;20.20;99.90
17170;DHT22;8700;48.222;16.342;2023-06-10T06:34:49;20.20;99.90
17170;DHT22;8700;48.222;16.342;2023-06-10T06:38:14;20.00;99.90
17170;DHT22;8700;48.222;16.342;2023-06-10T06:41:36;20.00;99.90
17170;DHT22;8700;48.222;16.342;2023-06-10T06:45:02;20.20;99.90
17170;DHT22;8700;48.222;16.342;2023-06-10T06:48:26;20.30;99.90
17170;DHT22;8700;48.222;16.342;2023-06-10T06:51:50;20.40;99.90
17170;DHT22;8700;48.222;16.342;2023-06-10T06:55:13;20.60;99.90
17170;DHT22;8700;48.222;16.342;2023-06-10T06:58:40;20.60;99.90
17170;DHT22;8700;48.222;16.342;2023-06-10T07:02:07;20.60;99.90
17170;DHT22;8700;48.222;16.342;2023-06-10T07:05:32;20.90;99.90
17170;DHT22;8700;48.222;16.342;2023-06-10T07:08:54;20.90;99.90
17170;DHT22;8700;48.222;16.342;2023-06-10T07:12:16;20.90;99.90
17170;DHT22;8700;48.222;16.342;2023-06-10T07:15:39;20.80;99.90
17170;DHT22;8700;48.222;16.342;2023-06-10T07:19:06;20.80;99.90
17170;DHT22;8700;48.222;16.342;2023-06-10T07:22:32;21.00;99.90
17170;DHT22;8700;48.222;16.342;2023-06-10T07:26:04;21.20;99.90
17170;DHT22;8700;48.222;16.342;2023-06-10T07:29:31;21.40;99.90
17170;DHT22;8700;48.222;16.342;2023-06-10T07:32:53;21.50;99.90
17170;DHT22;8700;48.222;16.342;2023-06-10T07:36:22;21.60;99.90
17170;DHT22;8700;48.222;16.342;2023-06-10T07:39:47;21.60;99.90
17170;DHT22;8700;48.222;16.342;2023-06-10T07:43:09;21.80;99.90
17170;DHT22;8700;48.222;16.342;2023-06-10T07:46:31;21.70;99.90
17170;DHT22;8700;48.222;16.342;2023-06-10T07:49:54;21.60;99.90
17170;DHT22;8700;48.222;16.342;2023-06-10T07:53:19;21.60;99.90
17170;DHT22;8700;48.222;16.342;2023-06-10T07:56:41;21.60;99.90
17170;DHT22;8700;48.222;16.342;2023-06-10T08:00:04;21.80;99.90
17170;DHT22;8700;48.222;16.342;2023-06-10T08:03:27;21.90;99.90
17170;DHT22;8700;48.222;16.342;2023-06-10T08:06:49;22.00;99.90
17170;DHT22;8700;48.222;16.342;2023-06-10T08:10:21;22.00;99.90
17170;DHT22;8700;48.222;16.342;2023-06-10T08:13:43;21.90;99.90
17170;DHT22;8700;48.222;16.342;2023-06-10T08:17:04;21.70;99.90
17170;DHT22;8700;48.222;16.342;2023-06-10T08:20:26;21.60;99.90
17170;DHT22;8700;48.222;16.342;2023-06-10T08:23:47;21.50;99.90
17170;DHT22;8700;48.222;16.342;2023-06-10T08:27:10;21.50;99.90
17170;DHT22;8700;48.222;16.342;2023-06-10T08:30:31;21.50;99.90
17170;DHT22;8700;48.222;16.342;2023-06-10T08:33:52;21.40;99.90
17170;DHT22;8700;48.222;16.342;2023-06-10T08:37:14;21.50;99.90
17170;DHT22;8700;48.222;16.342;2023-06-10T08:40:35;21.60;99.90
17170;DHT22;8700;48.222;16.342;2023-06-10T08:44:03;21.70;99.90
17170;DHT22;8700;48.222;16.342;2023-06-10T08:47:30;21.70;99.90
17170;DHT22;8700;48.222;16.342;2023-06-10T08:50:55;21.90;99.90
17170;DHT22;8700;48.222;16.342;2023-06-10T08:54:20;22.10;99.90
17170;DHT22;8700;48.222;16.342;2023-06-10T08:57:42;22.10;99.90
17170;DHT22;8700;48.222;16.342;2023-06-10T09:01:07;22.20;99.90
17170;DHT22;8700;48.222;16.342;2023-06-10T09:04:28;22.40;99.90
17170;DHT22;8700;48.222;16.342;2023-06-10T09:07:51;22.40;99.90
17170;DHT22;8700;48.222;16.342;2023-06-10T09:11:14;22.70;99.90
17170;DHT22;8700;48.222;16.342;2023-06-10T09:14:35;22.70;99.90
17170;DHT22;8700;48.222;16.342;2023-06-10T09:17:59;22.80;99.90
17170;DHT22;8700;48.222;16.342;2023-06-10T09:21:21;22.70;99.90
17170;DHT22;8700;48.222;16.342;2023-06-10T09:24:42;22.80;99.90
17170;DHT22;8700;48.222;16.342;2023-06-10T09:28:04;23.20;99.90
17170;DHT22;8700;48.222;16.342;2023-06-10T09:31:26;23.30;99.90
17170;DHT22;8700;48.222;16.342;2023-06-10T09:34:48;23.50;99.90
17170;DHT22;8700;48.222;16.342;2023-06-10T09:38:11;23.50;99.90
17170;DHT22;8700;48.222;16.342;2023-06-10T09:41:32;23.50;99.90
17170;DHT22;8700;48.222;16.342;2023-06-10T09:44:56;24.00;99.90
17170;DHT22;8700;48.222;16.342;2023-06-10T09:48:17;24.10;99.90
17170;DHT22;8700;48.222;16.342;2023-06-10T09:51:49;24.10;99.90
17170;DHT22;8700;48.222;16.342;2023-06-10T09:55:11;24.30;99.90
17170;DHT22;8700;48.222;16.342;2023-06-10T09:58:36;24.40;99.90
17170;DHT22;8700;48.222;16.342;2023-06-10T10:01:58;24.50;99.90
17170;DHT22;8700;48.222;16.342;2023-06-10T10:05:21;24.70;99.90
17170;DHT22;8700;48.222;16.342;2023-06-10T10:08:45;24.50;99.90
17170;DHT22;8700;48.222;16.342;2023-06-10T10:12:10;24.70;99.90
17170;DHT22;8700;48.222;16.342;2023-06-10T10:15:32;24.80;99.90
17170;DHT22;8700;48.222;16.342;2023-06-10T10:19:07;25.10;99.90
17170;DHT22;8700;48.222;16.342;2023-06-10T10:22:35;25.10;99.90
17170;DHT22;8700;48.222;16.342;2023-06-10T10:26:00;25.10;99.90
17170;DHT22;8700;48.222;16.342;2023-06-10T10:29:31;25.00;99.90
17170;DHT22;8700;48.222;16.342;2023-06-10T10:32:58;25.00;99.90
17170;DHT22;8700;48.222;16.342;2023-06-10T10:36:21;26.00;99.90
17170;DHT22;8700;48.222;16.342;2023-06-10T10:39:42;27.20;99.90
17170;DHT22;8700;48.222;16.342;2023-06-10T10:43:06;27.50;99.90
17170;DHT22;8700;48.222;16.342;2023-06-10T10:46:30;27.40;99.90
17170;DHT22;8700;48.222;16.342;2023-06-10T10:49:52;26.70;99.90
17170;DHT22;8700;48.222;16.342;2023-06-10T10:53:22;28.00;99.90
17170;DHT22;8700;48.222;16.342;2023-06-10T10:57:10;29.00;99.90
17170;DHT22;8700;48.222;16.342;2023-06-10T11:00:35;29.10;99.90
17170;DHT22;8700;48.222;16.342;2023-06-10T11:03:57;30.20;99.90
17170;DHT22;8700;48.222;16.342;2023-06-10T11:07:20;30.80;99.90
17170;DHT22;8700;48.222;16.342;2023-06-10T11:10:50;29.80;99.90
17170;DHT22;8700;48.222;16.342;2023-06-10T11:14:13;29.20;99.90
17170;DHT22;8700;48.222;16.342;2023-06-10T11:22:03;27.50;99.90
17170;DHT22;8700;48.222;16.342;2023-06-10T11:25:38;28.10;99.90
17170;DHT22;8700;48.222;16.342;2023-06-10T11:29:07;28.90;99.90
17170;DHT22;8700;48.222;16.342;2023-06-10T11:32:33;28.00;99.90
17170;DHT22;8700;48.222;16.342;2023-06-10T11:35:56;27.20;99.90
17170;DHT22;8700;48.222;16.342;2023-06-10T11:39:20;27.00;99.90
17170;DHT22;8700;48.222;16.342;2023-06-10T11:42:45;27.10;99.90
17170;DHT22;8700;48.222;16.342;2023-06-10T11:46:06;26.90;99.90
17170;DHT22;8700;48.222;16.342;2023-06-10T11:49:28;26.80;99.90
17170;DHT22;8700;48.222;16.342;2023-06-10T11:52:53;27.10;99.90
17170;DHT22;8700;48.222;16.342;2023-06-10T11:56:21;27.70;99.90
17170;DHT22;8700;48.222;16.342;2023-06-10T11:59:42;27.50;99.90
17170;DHT22;8700;48.222;16.342;2023-06-10T12:03:03;27.00;99.90
17170;DHT22;8700;48.222;16.342;2023-06-10T12:06:24;27.00;99.90
17170;DHT22;8700;48.222;16.342;2023-06-10T12:09:46;27.40;99.90
17170;DHT22;8700;48.222;16.342;2023-06-10T12:13:09;27.40;99.90
17170;DHT22;8700;48.222;16.342;2023-06-10T12:16:31;27.10;99.90
17170;DHT22;8700;48.222;16.342;2023-06-10T12:19:53;27.90;99.90
17170;DHT22;8700;48.222;16.342;2023-06-10T12:23:15;28.10;99.90
17170;DHT22;8700;48.222;16.342;2023-06-10T12:26:41;27.80;99.90
17170;DHT22;8700;48.222;16.342;2023-06-10T12:30:07;27.60;99.90
17170;DHT22;8700;48.222;16.342;2023-06-10T12:33:31;27.80;99.90
17170;DHT22;8700;48.222;16.342;2023-06-10T12:36:53;28.00;99.90
17170;DHT22;8700;48.222;16.342;2023-06-10T12:40:14;27.90;99.90
17170;DHT22;8700;48.222;16.342;2023-06-10T12:43:35;27.40;99.90
17170;DHT22;8700;48.222;16.342;2023-06-10T12:47:07;26.70;99.90
17170;DHT22;8700;48.222;16.342;2023-06-10T12:50:29;25.80;99.90
17170;DHT22;8700;48.222;16.342;2023-06-10T12:53:51;24.60;99.90
17170;DHT22;8700;48.222;16.342;2023-06-10T12:57:13;23.70;99.90
17170;DHT22;8700;48.222;16.342;2023-06-10T13:00:34;23.40;99.90
17170;DHT22;8700;48.222;16.342;2023-06-10T13:03:57;23.30;99.90
17170;DHT22;8700;48.222;16.342;2023-06-10T13:07:18;23.20;99.90
17170;DHT22;8700;48.222;16.342;2023-06-10T13:10:40;23.20;99.90
17170;DHT22;8700;48.222;16.342;2023-06-10T13:14:02;23.50;99.90
17170;DHT22;8700;48.222;16.342;2023-06-10T13:17:24;23.80;99.90
17170;DHT22;8700;48.222;16.342;2023-06-10T13:20:47;24.00;99.90
17170;DHT22;8700;48.222;16.342;2023-06-10T13:24:08;24.40;99.90
17170;DHT22;8700;48.222;16.342;2023-06-10T13:27:29;24.80;99.90
17170;DHT22;8700;48.222;16.342;2023-06-10T13:30:51;25.10;99.90
17170;DHT22;8700;48.222;16.342;2023-06-10T13:34:12;25.10;99.90
17170;DHT22;8700;48.222;16.342;2023-06-10T13:37:35;25.20;99.90
17170;DHT22;8700;48.222;16.342;2023-06-10T13:40:56;25.30;99.90
17170;DHT22;8700;48.222;16.342;2023-06-10T13:44:18;25.30;99.90
17170;DHT22;8700;48.222;16.342;2023-06-10T13:47:41;25.30;99.90
17170;DHT22;8700;48.222;16.342;2023-06-10T13:51:04;25.40;99.90
17170;DHT22;8700;48.222;16.342;2023-06-10T13:54:27;25.40;99.90
17170;DHT22;8700;48.222;16.342;2023-06-10T13:57:49;25.50;99.90
17170;DHT22;8700;48.222;16.342;2023-06-10T14:01:10;25.40;99.90
17170;DHT22;8700;48.222;16.342;2023-06-10T14:04:32;25.50;99.90
17170;DHT22;8700;48.222;16.342;2023-06-10T14:07:53;25.60;99.90
17170;DHT22;8700;48.222;16.342;2023-06-10T14:11:16;25.80;99.90
17170;DHT22;8700;48.222;16.342;2023-06-10T14:14:37;25.90;99.90
17170;DHT22;8700;48.222;16.342;2023-06-10T14:17:59;26.10;99.90
17170;DHT22;8700;48.222;16.342;2023-06-10T14:21:20;26.10;99.90
17170;DHT22;8700;48.222;16.342;2023-06-10T14:24:45;26.30;99.90
17170;DHT22;8700;48.222;16.342;2023-06-10T14:28:08;26.30;99.90
17170;DHT22;8700;48.222;16.342;2023-06-10T14:31:30;26.30;99.90
17170;DHT22;8700;48.222;16.342;2023-06-10T14:35:00;26.40;99.90
17170;DHT22;8700;48.222;16.342;2023-06-10T14:38:21;26.50;99.90
17170;DHT22;8700;48.222;16.342;2023-06-10T14:41:42;26.40;99.90
17170;DHT22;8700;48.222;16.342;2023-06-10T14:45:07;26.40;99.90
17170;DHT22;8700;48.222;16.342;2023-06-10T14:48:29;26.50;99.90
17170;DHT22;8700;48.222;16.342;2023-06-10T14:51:54;26.70;99.90
17170;DHT22;8700;48.222;16.342;2023-06-10T14:55:15;26.80;99.90
17170;DHT22;8700;48.222;16.342;2023-06-10T14:58:37;26.80;99.90
17170;DHT22;8700;48.222;16.342;2023-06-10T15:02:00;26.70;99.90
17170;DHT22;8700;48.222;16.342;2023-06-10T15:05:22;26.90;99.90
17170;DHT22;8700;48.222;16.342;2023-06-10T15:08:43;26.90;99.90
17170;DHT22;8700;48.222;16.342;2023-06-10T15:12:05;27.00;99.90
17170;DHT22;8700;48.222;16.342;2023-06-10T15:15:27;26.80;99.90
17170;DHT22;8700;48.222;16.342;2023-06-10T15:18:49;26.60;99.90
17170;DHT22;8700;48.222;16.342;2023-06-10T15:22:13;26.70;99.90
17170;DHT22;8700;48.222;16.342;2023-06-10T15:25:35;26.60;99.90
17170;DHT22;8700;48.222;16.342;2023-06-10T15:28:56;26.10;99.90
17170;DHT22;8700;48.222;16.342;2023-06-10T15:32:18;25.70;99.90
17170;DHT22;8700;48.222;16.342;2023-06-10T15:35:40;23.90;99.90
17170;DHT22;8700;48.222;16.342;2023-06-10T15:39:04;22.10;99.90
17170;DHT22;8700;48.222;16.342;2023-06-10T15:42:26;21.40;99.90
17170;DHT22;8700;48.222;16.342;2023-06-10T15:45:47;21.20;99.90
17170;DHT22;8700;48.222;16.342;2023-06-10T15:49:11;21.00;99.90
17170;DHT22;8700;48.222;16.342;2023-06-10T15:52:33;20.70;99.90
17170;DHT22;8700;48.222;16.342;2023-06-10T15:55:55;20.20;99.90
17170;DHT22;8700;48.222;16.342;2023-06-10T15:59:16;20.20;99.90
17170;DHT22;8700;48.222;16.342;2023-06-10T16:02:37;20.30;99.90
17170;DHT22;8700;48.222;16.342;2023-06-10T16:05:58;20.30;99.90
17170;DHT22;8700;48.222;16.342;2023-06-10T16:09:21;20.40;99.90
17170;DHT22;8700;48.222;16.342;2023-06-10T16:12:43;20.30;99.90
17170;DHT22;8700;48.222;16.342;2023-06-10T16:16:04;20.30;99.90
17170;DHT22;8700;48.222;16.342;2023-06-10T16:19:28;20.30;99.90
17170;DHT22;8700;48.222;16.342;2023-06-10T16:22:50;20.20;99.90
17170;DHT22;8700;48.222;16.342;2023-06-10T16:26:12;20.20;99.90
17170;DHT22;8700;48.222;16.342;2023-06-10T16:29:36;20.20;99.90
17170;DHT22;8700;48.222;16.342;2023-06-10T16:32:57;20.30;99.90
17170;DHT22;8700;48.222;16.342;2023-06-10T16:36:18;20.40;99.90
17170;DHT22;8700;48.222;16.342;2023-06-10T16:39:39;20.40;99.90
17170;DHT22;8700;48.222;16.342;2023-06-10T16:43:02;20.60;99.90
17170;DHT22;8700;48.222;16.342;2023-06-10T16:46:23;20.60;99.90
17170;DHT22;8700;48.222;16.342;2023-06-10T16:49:45;20.70;99.90
17170;DHT22;8700;48.222;16.342;2023-06-10T16:53:06;20.80;99.90
17170;DHT22;8700;48.222;16.342;2023-06-10T16:56:27;20.80;99.90
17170;DHT22;8700;48.222;16.342;2023-06-10T16:59:50;21.00;99.90
17170;DHT22;8700;48.222;16.342;2023-06-10T17:03:12;21.00;99.90
17170;DHT22;8700;48.222;16.342;2023-06-10T17:06:34;21.00;99.90
17170;DHT22;8700;48.222;16.342;2023-06-10T17:09:55;21.10;99.90
17170;DHT22;8700;48.222;16.342;2023-06-10T17:13:16;21.00;99.90
17170;DHT22;8700;48.222;16.342;2023-06-10T17:16:39;20.90;99.90
17170;DHT22;8700;48.222;16.342;2023-06-10T17:20:00;20.90;99.90
17170;DHT22;8700;48.222;16.342;2023-06-10T17:23:22;20.90;99.90
17170;DHT22;8700;48.222;16.342;2023-06-10T17:26:43;21.00;99.90
17170;DHT22;8700;48.222;16.342;2023-06-10T17:30:06;21.00;99.90
17170;DHT22;8700;48.222;16.342;2023-06-10T17:33:29;21.20;99.90
17170;DHT22;8700;48.222;16.342;2023-06-10T17:36:50;21.10;99.90
17170;DHT22;8700;48.222;16.342;2023-06-10T17:40:12;21.00;99.90
17170;DHT22;8700;48.222;16.342;2023-06-10T17:43:34;20.90;99.90
17170;DHT22;8700;48.222;16.342;2023-06-10T17:46:59;20.80;99.90
17170;DHT22;8700;48.222;16.342;2023-06-10T17:50:23;20.80;99.90
17170;DHT22;8700;48.222;16.342;2023-06-10T17:53:48;20.90;99.90
17170;DHT22;8700;48.222;16.342;2023-06-10T17:57:10;20.90;99.90
17170;DHT22;8700;48.222;16.342;2023-06-10T18:00:32;20.90;99.90
17170;DHT22;8700;48.222;16.342;2023-06-10T18:03:53;20.80;99.90
17170;DHT22;8700;48.222;16.342;2023-06-10T18:07:17;20.90;99.90
17170;DHT22;8700;48.222;16.342;2023-06-10T18:10:38;20.80;99.90
17170;DHT22;8700;48.222;16.342;2023-06-10T18:14:00;20.80;99.90
17170;DHT22;8700;48.222;16.342;2023-06-10T18:17:21;20.90;99.90
17170;DHT22;8700;48.222;16.342;2023-06-10T18:20:45;21.00;99.90
17170;DHT22;8700;48.222;16.342;2023-06-10T18:24:09;21.10;99.90
17170;DHT22;8700;48.222;16.342;2023-06-10T18:27:31;21.10;99.90
17170;DHT22;8700;48.222;16.342;2023-06-10T18:30:52;21.00;99.90
17170;DHT22;8700;48.222;16.342;2023-06-10T18:34:16;21.10;99.90
17170;DHT22;8700;48.222;16.342;2023-06-10T18:37:38;21.10;99.90
17170;DHT22;8700;48.222;16.342;2023-06-10T18:41:01;21.00;99.90
17170;DHT22;8700;48.222;16.342;2023-06-10T18:44:22;21.10;99.90
17170;DHT22;8700;48.222;16.342;2023-06-10T18:47:44;21.20;99.90
17170;DHT22;8700;48.222;16.342;2023-06-10T18:51:05;21.20;99.90
17170;DHT22;8700;48.222;16.342;2023-06-10T18:54:27;21.10;99.90
17170;DHT22;8700;48.222;16.342;2023-06-10T18:57:49;21.00;99.90
17170;DHT22;8700;48.222;16.342;2023-06-10T19:01:11;20.90;99.90
17170;DHT22;8700;48.222;16.342;2023-06-10T19:04:32;20.90;99.90
17170;DHT22;8700;48.222;16.342;2023-06-10T19:07:54;20.90;99.90
17170;DHT22;8700;48.222;16.342;2023-06-10T19:11:15;21.00;99.90
17170;DHT22;8700;48.222;16.342;2023-06-10T19:14:39;20.80;99.90
17170;DHT22;8700;48.222;16.342;2023-06-10T19:18:01;20.70;99.90
17170;DHT22;8700;48.222;16.342;2023-06-10T19:21:22;20.70;99.90
17170;DHT22;8700;48.222;16.342;2023-06-10T19:24:44;20.70;99.90
17170;DHT22;8700;48.222;16.342;2023-06-10T19:28:07;20.70;99.90
17170;DHT22;8700;48.222;16.342;2023-06-10T19:31:30;20.70;99.90
17170;DHT22;8700;48.222;16.342;2023-06-10T19:34:52;20.80;99.90
17170;DHT22;8700;48.222;16.342;2023-06-10T19:38:14;20.80;99.90
17170;DHT22;8700;48.222;16.342;2023-06-10T19:41:36;20.80;99.90
17170;DHT22;8700;48.222;16.342;2023-06-10T19:44:58;20.80;99.90
17170;DHT22;8700;48.222;16.342;2023-06-10T19:48:20;20.70;99.90
17170;DHT22;8700;48.222;16.342;2023-06-10T19:51:41;20.70;99.90
17170;DHT22;8700;48.222;16.342;2023-06-10T19:55:06;20.80;99.90
17170;DHT22;8700;48.222;16.342;2023-06-10T19:58:29;20.80;99.90
17170;DHT22;8700;48.222;16.342;2023-06-10T20:01:51;20.80;99.90
17170;DHT22;8700;48.222;16.342;2023-06-10T20:05:14;20.80;99.90
17170;DHT22;8700;48.222;16.342;2023-06-10T20:08:35;20.80;99.90
17170;DHT22;8700;48.222;16.342;2023-06-10T20:11:56;20.80;99.90
17170;DHT22;8700;48.222;16.342;2023-06-10T20:15:18;20.70;99.90
17170;DHT22;8700;48.222;16.342;2023-06-10T20:18:39;20.70;99.90
17170;DHT22;8700;48.222;16.342;2023-06-10T20:22:02;20.70;99.90
17170;DHT22;8700;48.222;16.342;2023-06-10T20:25:23;20.70;99.90
17170;DHT22;8700;48.222;16.342;2023-06-10T20:28:45;20.70;99.90
17170;DHT22;8700;48.222;16.342;2023-06-10T20:32:07;20.70;99.90
17170;DHT22;8700;48.222;16.342;2023-06-10T20:35:31;20.70;99.90
17170;DHT22;8700;48.222;16.342;2023-06-10T20:38:54;20.80;99.90
17170;DHT22;8700;48.222;16.342;2023-06-10T20:42:15;20.90;99.90
17170;DHT22;8700;48.222;16.342;2023-06-10T20:45:36;20.80;99.90
17170;DHT22;8700;48.222;16.342;2023-06-10T20:48:59;20.80;99.90
17170;DHT22;8700;48.222;16.342;2023-06-10T20:52:20;20.70;99.90
17170;DHT22;8700;48.222;16.342;2023-06-10T20:55:43;20.70;99.90
17170;DHT22;8700;48.222;16.342;2023-06-10T20:59:04;20.70;99.90
17170;DHT22;8700;48.222;16.342;2023-06-10T21:02:26;20.70;99.90
17170;DHT22;8700;48.222;16.342;2023-06-10T21:05:47;20.70;99.90
17170;DHT22;8700;48.222;16.342;2023-06-10T21:09:08;20.70;99.90
17170;DHT22;8700;48.222;16.342;2023-06-10T21:12:33;20.70;99.90
17170;DHT22;8700;48.222;16.342;2023-06-10T21:15:54;20.70;99.90
17170;DHT22;8700;48.222;16.342;2023-06-10T21:19:15;20.70;99.90
17170;DHT22;8700;48.222;16.342;2023-06-10T21:22:37;20.70;99.90
17170;DHT22;8700;48.222;16.342;2023-06-10T21:25:58;20.60;99.90
17170;DHT22;8700;48.222;16.342;2023-06-10T21:29:23;20.60;99.90